createdAt,value
2023-03-05T00:01:35.598Z,99124.47
2023-03-05T00:03:38.570Z,99120.19
2023-03-05T00:05:43.229Z,99126.00
2023-03-05T00:07:46.392Z,99118.53
2023-03-05T00:09:49.424Z,99117.31
2023-03-05T00:11:52.766Z,99120.75
2023-03-05T00:14:00.980Z,99117.94
2023-03-05T00:16:04.723Z,99118.47
2023-03-05T00:18:07.736Z,99116.47
2023-03-05T00:20:11.588Z,99114.09
2023-03-05T00:22:16.532Z,99123.56
2023-03-05T00:24:19.617Z,99116.97
2023-03-05T00:26:25.180Z,99112.69
2023-03-05T00:28:28.098Z,99122.63
2023-03-05T00:30:31.658Z,99121.28
2023-03-05T00:32:36.026Z,99112.31
2023-03-05T00:34:38.919Z,99107.81
2023-03-05T00:36:42.628Z,99106.63
2023-03-05T00:38:47.299Z,99105.66
2023-03-05T00:40:51.473Z,99096.94
2023-03-05T00:42:54.621Z,99099.44
2023-03-05T00:44:57.563Z,99102.59
2023-03-05T00:47:05.221Z,99106.09
2023-03-05T00:49:08.467Z,99105.09
2023-03-05T00:51:11.559Z,99098.34
2023-03-05T00:53:14.640Z,99092.53
2023-03-05T00:55:19.450Z,99091.78
2023-03-05T00:57:22.549Z,99082.69
2023-03-05T00:59:25.500Z,99082.03
2023-03-05T01:01:29.480Z,99074.78
2023-03-05T01:03:33.904Z,99072.31
2023-03-05T01:05:37.178Z,99076.94
2023-03-05T01:07:40.941Z,99062.03
2023-03-05T01:09:43.914Z,99078.06
2023-03-05T01:11:48.363Z,99066.00
2023-03-05T01:13:51.288Z,99058.72
2023-03-05T01:15:54.437Z,99054.78
2023-03-05T01:17:57.317Z,99061.41
2023-03-05T01:20:00.382Z,99054.78
2023-03-05T01:22:03.484Z,99059.75
2023-03-05T01:24:07.647Z,99058.56
2023-03-05T01:26:10.715Z,99056.44
2023-03-05T01:28:15.752Z,99056.44
2023-03-05T01:30:18.921Z,99059.09
2023-03-05T01:32:25.047Z,99053.78
2023-03-05T01:34:28.013Z,99057.78
2023-03-05T01:36:32.344Z,99048.53
2023-03-05T01:38:35.188Z,99052.31
2023-03-05T01:40:38.053Z,99051.66
2023-03-05T01:42:41.025Z,99059.47
2023-03-05T01:45:04.537Z,99058.09
2023-03-05T01:47:07.462Z,99063.06
2023-03-05T01:49:20.025Z,99067.34
2023-03-05T01:51:27.389Z,99065.22
2023-03-05T01:53:31.349Z,99067.06
2023-03-05T01:55:37.601Z,99063.91
2023-03-05T01:57:44.853Z,99058.63
2023-03-05T01:59:51.381Z,99054.84
2023-03-05T02:01:58.404Z,99053.66
2023-03-05T02:04:02.770Z,99053.66
2023-03-05T02:06:06.409Z,99053.16
2023-03-05T02:08:12.049Z,99057.16
2023-03-05T02:10:17.409Z,99054.97
2023-03-05T02:12:20.590Z,99043.63
2023-03-05T02:14:26.780Z,99045.63
2023-03-05T02:16:36.269Z,99042.97
2023-03-05T02:18:40.769Z,99039.00
2023-03-05T02:20:46.269Z,99044.13
2023-03-05T02:22:50.924Z,99039.31
2023-03-05T02:24:53.848Z,99046.41
2023-03-05T02:26:56.845Z,99042.47
2023-03-05T02:29:03.474Z,99047.41
2023-03-05T02:31:10.435Z,99049.41
2023-03-05T02:33:15.097Z,99050.06
2023-03-05T02:35:18.803Z,99040.63
2023-03-05T02:37:22.445Z,99037.50
2023-03-05T02:39:29.105Z,99035.34
2023-03-05T02:41:31.983Z,99034.19
2023-03-05T02:43:35.524Z,99042.97
2023-03-05T02:45:39.782Z,99033.22
2023-03-05T02:47:42.944Z,99040.50
2023-03-05T02:49:45.954Z,99033.22
2023-03-05T02:51:52.064Z,99030.59
2023-03-05T02:53:55.533Z,99021.00
2023-03-05T02:56:04.876Z,99020.81
2023-03-05T02:58:10.676Z,99020.34
2023-03-05T03:00:14.768Z,99016.06
2023-03-05T03:02:17.917Z,99032.72
2023-03-05T03:04:21.169Z,99020.50
2023-03-05T03:06:23.998Z,99025.31
2023-03-05T03:08:27.246Z,99026.13
2023-03-05T03:10:30.585Z,99020.50
2023-03-05T03:12:37.803Z,99025.31
2023-03-05T03:14:42.920Z,99025.13
2023-03-05T03:16:46.175Z,99020.19
2023-03-05T03:18:49.230Z,99024.66
2023-03-05T03:20:52.218Z,99017.88
2023-03-05T03:22:55.555Z,99021.53
2023-03-05T03:24:58.649Z,99022.19
2023-03-05T03:27:02.119Z,99017.22
2023-03-05T03:29:06.599Z,99014.94
2023-03-05T03:31:09.650Z,99015.25
2023-03-05T03:33:13.041Z,99004.66
2023-03-05T03:35:15.944Z,98996.41
2023-03-05T03:37:18.839Z,98985.03
2023-03-05T03:39:30.016Z,98980.28
2023-03-05T03:41:33.881Z,98980.28
2023-03-05T03:43:37.443Z,98974.81
2023-03-05T03:45:48.331Z,98972.66
2023-03-05T03:47:52.195Z,98961.25
2023-03-05T03:49:55.488Z,98969.34
2023-03-05T03:52:01.380Z,98975.13
2023-03-05T03:54:04.543Z,98960.44
2023-03-05T03:56:07.974Z,98960.59
2023-03-05T03:58:11.281Z,98960.09
2023-03-05T04:00:14.973Z,98966.88
2023-03-05T04:02:19.713Z,98957.44
2023-03-05T04:04:22.634Z,98962.56
2023-03-05T04:06:25.763Z,98966.19
2023-03-05T04:08:28.707Z,98973.31
2023-03-05T04:10:31.723Z,98978.91
2023-03-05T04:12:37.322Z,98978.91
2023-03-05T04:14:39.962Z,98976.63
2023-03-05T04:16:52.063Z,98980.56
2023-03-05T04:18:56.805Z,98989.34
2023-03-05T04:20:59.762Z,98980.91
2023-03-05T04:23:02.833Z,98977.09
2023-03-05T04:25:06.963Z,98978.25
2023-03-05T04:27:10.446Z,98972.97
2023-03-05T04:29:13.541Z,98980.94
2023-03-05T04:31:17.602Z,98968.88
2023-03-05T04:33:23.048Z,98962.28
2023-03-05T04:35:27.606Z,98973.84
2023-03-05T04:37:30.436Z,98969.38
2023-03-05T04:39:33.694Z,98963.44
2023-03-05T04:41:36.735Z,98965.44
2023-03-05T04:43:39.920Z,98964.25
2023-03-05T04:45:46.622Z,98963.09
2023-03-05T04:47:55.904Z,98969.69
2023-03-05T04:50:01.179Z,98960.97
2023-03-05T04:52:12.403Z,98958.66
2023-03-05T04:54:15.724Z,98961.16
2023-03-05T04:56:19.012Z,98971.34
2023-03-05T04:58:29.793Z,98968.22
2023-03-05T05:00:33.133Z,98966.56
2023-03-05T05:02:36.253Z,98963.28
2023-03-05T05:04:39.593Z,98960.97
2023-03-05T05:06:42.579Z,98961.63
2023-03-05T05:08:47.151Z,98957.81
2023-03-05T05:10:57.716Z,98959.31
2023-03-05T05:13:00.638Z,98955.03
2023-03-05T05:15:04.401Z,98958.78
2023-03-05T05:17:07.500Z,98961.78
2023-03-05T05:19:10.587Z,98949.88
2023-03-05T05:21:15.063Z,98955.00
2023-03-05T05:23:18.615Z,98954.19
2023-03-05T05:25:23.069Z,98965.56
2023-03-05T05:27:25.930Z,98962.75
2023-03-05T05:29:28.796Z,98966.53
2023-03-05T05:31:31.966Z,98958.78
2023-03-05T05:33:35.284Z,98973.63
2023-03-05T05:35:40.297Z,98965.53
2023-03-05T05:37:43.439Z,98966.38
2023-03-05T05:39:50.485Z,98963.06
2023-03-05T05:41:54.921Z,98961.75
2023-03-05T05:43:57.839Z,98957.66
2023-03-05T05:46:01.509Z,98956.16
2023-03-05T05:48:04.482Z,98961.75
2023-03-05T05:50:08.254Z,98963.41
2023-03-05T05:52:11.251Z,98954.97
2023-03-05T05:54:15.416Z,98956.78
2023-03-05T05:56:18.680Z,98943.78
2023-03-05T05:58:23.172Z,98948.56
2023-03-05T06:00:26.112Z,98939.50
2023-03-05T06:02:29.164Z,98953.63
2023-03-05T06:04:32.242Z,98940.94
2023-03-05T06:06:35.376Z,98943.56
2023-03-05T06:08:38.945Z,98937.69
2023-03-05T06:10:41.893Z,98930.91
2023-03-05T06:12:44.931Z,98931.56
2023-03-05T06:14:49.801Z,98917.91
2023-03-05T06:16:52.629Z,98916.56
2023-03-05T06:18:55.744Z,98925.81
2023-03-05T06:21:00.190Z,98926.47
2023-03-05T06:23:03.165Z,98917.25
2023-03-05T06:25:07.130Z,98922.34
2023-03-05T06:27:10.421Z,98909.00
2023-03-05T06:29:13.382Z,98912.47
2023-03-05T06:31:22.241Z,98910.66
2023-03-05T06:33:25.602Z,98914.13
2023-03-05T06:35:28.608Z,98913.47
2023-03-05T06:37:31.751Z,98909.81
2023-03-05T06:39:34.940Z,98910.16
2023-03-05T06:41:37.879Z,98911.31
2023-03-05T06:43:43.184Z,98905.38
2023-03-05T06:45:46.098Z,98909.97
2023-03-05T06:47:50.491Z,98908.13
2023-03-05T06:49:53.319Z,98902.84
2023-03-05T06:51:56.238Z,98897.75
2023-03-05T06:54:02.078Z,98903.50
2023-03-05T06:56:05.608Z,98893.44
2023-03-05T06:58:08.549Z,98891.81
2023-03-05T07:00:12.843Z,98901.72
2023-03-05T07:02:16.113Z,98892.94
2023-03-05T07:04:20.463Z,98897.56
2023-03-05T07:06:23.886Z,98898.69
2023-03-05T07:08:26.840Z,98903.13
2023-03-05T07:10:29.719Z,98904.25
2023-03-05T07:12:32.822Z,98894.50
2023-03-05T07:14:35.841Z,98892.34
2023-03-05T07:16:38.845Z,98888.53
2023-03-05T07:18:42.010Z,98892.28
2023-03-05T07:20:46.560Z,98892.59
2023-03-05T07:22:49.423Z,98892.91
2023-03-05T07:24:52.379Z,98889.25
2023-03-05T07:26:55.223Z,98894.38
2023-03-05T07:28:58.239Z,98891.84
2023-03-05T07:31:03.770Z,98882.25
2023-03-05T07:33:06.493Z,98881.31
2023-03-05T07:35:10.366Z,98883.22
2023-03-05T07:37:15.842Z,98877.56
2023-03-05T07:39:21.660Z,98877.50
2023-03-05T07:41:24.812Z,98860.00
2023-03-05T07:43:27.881Z,98868.41
2023-03-05T07:45:30.782Z,98865.88
2023-03-05T07:47:33.764Z,98856.59
2023-03-05T07:49:36.973Z,98859.25
2023-03-05T07:51:41.651Z,98860.59
2023-03-05T07:53:47.812Z,98861.09
2023-03-05T07:55:50.722Z,98854.59
2023-03-05T07:57:53.922Z,98855.66
2023-03-05T07:59:57.255Z,98851.44
2023-03-05T08:02:00.560Z,98849.78
2023-03-05T08:04:04.079Z,98853.88
2023-03-05T08:06:07.652Z,98845.66
2023-03-05T08:08:11.455Z,98852.91
2023-03-05T08:10:16.591Z,98846.19
2023-03-05T08:12:19.482Z,98846.59
2023-03-05T08:14:22.573Z,98854.25
2023-03-05T08:16:26.686Z,98849.91
2023-03-05T08:18:29.561Z,98847.38
2023-03-05T08:20:35.217Z,98842.72
2023-03-05T08:22:38.487Z,98842.72
2023-03-05T08:24:41.349Z,98845.00
2023-03-05T08:26:45.806Z,98848.03
2023-03-05T08:28:49.151Z,98837.97
2023-03-05T08:30:52.415Z,98837.06
2023-03-05T08:32:55.919Z,98849.66
2023-03-05T08:34:59.445Z,98835.44
2023-03-05T08:37:02.640Z,98837.72
2023-03-05T08:39:07.211Z,98840.47
2023-03-05T08:41:10.053Z,98832.47
2023-03-05T08:43:15.506Z,98835.78
2023-03-05T08:45:18.562Z,98828.53
2023-03-05T08:47:21.468Z,98830.28
2023-03-05T08:49:24.402Z,98834.66
2023-03-05T08:51:27.808Z,98833.69
2023-03-05T08:53:30.762Z,98846.78
2023-03-05T08:55:33.696Z,98844.78
2023-03-05T08:57:36.665Z,98849.38
2023-03-05T08:59:41.046Z,98848.72
2023-03-05T09:01:44.063Z,98842.66
2023-03-05T09:03:47.244Z,98846.06
2023-03-05T09:05:51.646Z,98845.78
2023-03-05T09:07:54.602Z,98850.22
2023-03-05T09:09:57.531Z,98845.56
2023-03-05T09:12:00.737Z,98849.78
2023-03-05T09:14:04.030Z,98849.06
2023-03-05T09:16:11.404Z,98841.84
2023-03-05T09:18:14.603Z,98845.88
2023-03-05T09:20:17.981Z,98838.94
2023-03-05T09:22:20.967Z,98837.22
2023-03-05T09:24:24.934Z,98837.06
2023-03-05T09:26:28.251Z,98831.06
2023-03-05T09:28:31.250Z,98832.34
2023-03-05T09:30:35.455Z,98832.72
2023-03-05T09:32:40.009Z,98827.22
2023-03-05T09:34:43.175Z,98826.97
2023-03-05T09:36:46.177Z,98827.03
2023-03-05T09:38:49.180Z,98828.22
2023-03-05T09:40:58.862Z,98819.84
2023-03-05T09:43:08.701Z,98827.69
2023-03-05T09:45:21.873Z,98826.69
2023-03-05T09:47:45.180Z,98826.31
2023-03-05T09:49:58.419Z,98818.28
2023-03-05T09:52:07.712Z,98822.31
2023-03-05T09:54:16.945Z,98818.81
2023-03-05T09:56:24.040Z,98826.03
2023-03-05T09:58:34.621Z,98826.41
2023-03-05T10:00:41.614Z,98829.06
2023-03-05T10:02:51.554Z,98825.22
2023-03-05T10:05:04.819Z,98824.75
2023-03-05T10:07:15.693Z,98821.47
2023-03-05T10:09:30.953Z,98826.88
2023-03-05T10:11:54.367Z,98819.75
2023-03-05T10:13:57.864Z,98828.53
2023-03-05T10:16:11.548Z,98814.25
2023-03-05T10:18:23.541Z,98823.88
2023-03-05T10:21:02.487Z,98816.38
2023-03-05T10:23:21.143Z,98816.38
2023-03-05T10:25:34.651Z,98812.78
2023-03-05T10:27:49.847Z,98807.84
2023-03-05T10:30:01.658Z,98811.78
2023-03-05T10:32:17.361Z,98809.94
2023-03-05T10:34:49.893Z,98804.34
2023-03-05T10:37:20.352Z,98808.19
2023-03-05T10:39:53.182Z,98804.56
2023-03-05T10:42:06.313Z,98795.56
2023-03-05T10:44:17.054Z,98801.06
2023-03-05T10:46:24.673Z,98799.50
2023-03-05T10:48:38.543Z,98792.72
2023-03-05T10:50:45.106Z,98787.63
2023-03-05T10:52:55.759Z,98790.25
2023-03-05T10:54:58.726Z,98783.38
2023-03-05T10:57:14.402Z,98782.22
2023-03-05T10:59:17.350Z,98776.91
2023-03-05T11:01:23.197Z,98776.28
2023-03-05T11:03:26.514Z,98778.94
2023-03-05T11:05:40.230Z,98787.72
2023-03-05T11:07:43.398Z,98774.56
2023-03-05T11:10:04.940Z,98781.28
2023-03-05T11:12:14.216Z,98780.13
2023-03-05T11:14:31.153Z,98779.00
2023-03-05T11:16:45.869Z,98783.47
2023-03-05T11:18:49.281Z,98775.72
2023-03-05T11:20:52.772Z,98772.97
2023-03-05T11:23:05.088Z,98769.41
2023-03-05T11:25:19.347Z,98767.16
2023-03-05T11:27:26.316Z,98754.22
2023-03-05T11:29:31.362Z,98752.28
2023-03-05T11:31:34.490Z,98756.63
2023-03-05T11:33:38.385Z,98745.59
2023-03-05T11:35:43.565Z,98741.53
2023-03-05T11:38:00.917Z,98747.91
2023-03-05T11:40:19.800Z,98752.41
2023-03-05T11:42:25.615Z,98756.25
2023-03-05T11:44:34.485Z,98746.81
2023-03-05T11:46:42.184Z,98748.69
2023-03-05T11:48:47.378Z,98742.16
2023-03-05T11:50:55.687Z,98745.59
2023-03-05T11:53:02.789Z,98732.56
2023-03-05T11:55:13.879Z,98730.97
2023-03-05T11:57:19.740Z,98728.78
2023-03-05T11:59:28.895Z,98729.19
2023-03-05T12:01:36.031Z,98721.94
2023-03-05T12:03:39.654Z,98722.00
2023-03-05T12:05:46.372Z,98719.66
2023-03-05T12:07:53.293Z,98712.34
2023-03-05T12:09:56.254Z,98713.13
2023-03-05T12:12:07.452Z,98721.38
2023-03-05T12:14:22.015Z,98717.22
2023-03-05T12:16:32.024Z,98716.75
2023-03-05T12:18:45.294Z,98721.19
2023-03-05T12:21:00.856Z,98723.94
2023-03-05T12:23:05.190Z,98717.75
2023-03-05T12:25:29.278Z,98717.19
2023-03-05T12:27:34.606Z,98716.16
2023-03-05T12:29:44.788Z,98722.41
2023-03-05T12:31:47.686Z,98713.09
2023-03-05T12:33:50.836Z,98712.00
2023-03-05T12:35:53.687Z,98714.81
2023-03-05T12:38:17.178Z,98710.31
2023-03-05T12:40:29.005Z,98707.03
2023-03-05T12:42:53.087Z,98697.59
2023-03-05T12:45:29.146Z,98695.72
2023-03-05T12:47:33.505Z,98699.13
2023-03-05T12:49:39.235Z,98699.22
2023-03-05T12:51:42.769Z,98696.22
2023-03-05T12:53:45.727Z,98684.03
2023-03-05T12:55:58.389Z,98687.63
2023-03-05T12:58:05.310Z,98685.84
2023-03-05T13:00:14.949Z,98687.19
2023-03-05T13:02:27.568Z,98683.69
2023-03-05T13:04:35.435Z,98676.44
2023-03-05T13:06:39.922Z,98666.63
2023-03-05T13:08:43.971Z,98674.53
2023-03-05T13:10:52.716Z,98668.66
2023-03-05T13:12:58.843Z,98675.59
2023-03-05T13:15:04.652Z,98677.00
2023-03-05T13:17:38.398Z,98671.31
2023-03-05T13:19:43.769Z,98675.56
2023-03-05T13:21:46.908Z,98672.50
2023-03-05T13:23:58.033Z,98666.00
2023-03-05T13:26:13.516Z,98670.25
2023-03-05T13:28:17.446Z,98676.69
2023-03-05T13:30:26.646Z,98671.09
2023-03-05T13:32:32.194Z,98671.19
2023-03-05T13:34:47.085Z,98665.88
2023-03-05T13:36:58.277Z,98673.66
2023-03-05T13:39:02.604Z,98666.31
2023-03-05T13:41:09.196Z,98663.50
2023-03-05T13:43:18.984Z,98660.00
2023-03-05T13:45:26.178Z,98657.97
2023-03-05T13:47:31.995Z,98651.28
2023-03-05T13:49:35.014Z,98654.91
2023-03-05T13:51:45.384Z,98650.25
2023-03-05T13:53:50.577Z,98649.72
2023-03-05T13:55:56.851Z,98650.00
2023-03-05T13:58:00.193Z,98649.66
2023-03-05T14:00:04.242Z,98652.38
2023-03-05T14:02:18.332Z,98648.06
2023-03-05T14:04:24.916Z,98652.56
2023-03-05T14:06:29.892Z,98651.13
2023-03-05T14:08:33.831Z,98641.91
2023-03-05T14:10:39.296Z,98637.03
2023-03-05T14:12:44.082Z,98628.38
2023-03-05T14:14:47.695Z,98634.75
2023-03-05T14:16:50.619Z,98623.66
2023-03-05T14:18:55.656Z,98638.63
2023-03-05T14:21:02.095Z,98635.00
2023-03-05T14:23:27.234Z,98630.88
2023-03-05T14:25:36.767Z,98630.19
2023-03-05T14:27:41.425Z,98628.94
2023-03-05T14:29:46.689Z,98634.84
2023-03-05T14:31:52.096Z,98625.22
2023-03-05T14:34:01.135Z,98621.53
2023-03-05T14:36:05.506Z,98624.63
2023-03-05T14:38:16.767Z,98619.03
2023-03-05T14:40:22.078Z,98615.78
2023-03-05T14:42:33.458Z,98615.94
2023-03-05T14:44:37.927Z,98619.19
2023-03-05T14:46:41.430Z,98620.31
2023-03-05T14:48:44.347Z,98629.41
2023-03-05T14:50:54.103Z,98624.72
2023-03-05T14:53:01.950Z,98622.13
2023-03-05T14:55:06.024Z,98621.09
2023-03-05T14:57:15.862Z,98618.72
2023-03-05T14:59:18.882Z,98617.63
2023-03-05T15:01:25.240Z,98622.53
2023-03-05T15:03:28.618Z,98624.56
2023-03-05T15:05:32.571Z,98627.09
2023-03-05T15:07:35.692Z,98627.84
2023-03-05T15:09:38.724Z,98628.88
2023-03-05T15:11:41.683Z,98626.78
2023-03-05T15:13:44.930Z,98625.91
2023-03-05T15:15:49.402Z,98623.97
2023-03-05T15:17:57.976Z,98622.19
2023-03-05T15:20:01.276Z,98607.94
2023-03-05T15:22:04.509Z,98607.97
2023-03-05T15:24:10.121Z,98610.44
2023-03-05T15:26:15.369Z,98605.31
2023-03-05T15:28:18.390Z,98611.69
2023-03-05T15:30:23.564Z,98611.69
2023-03-05T15:32:27.795Z,98606.03
2023-03-05T15:34:34.092Z,98597.38
2023-03-05T15:36:36.982Z,98603.31
2023-03-05T15:38:41.974Z,98610.94
2023-03-05T15:40:45.289Z,98608.41
2023-03-05T15:42:49.303Z,98605.97
2023-03-05T15:44:52.227Z,98610.28
2023-03-05T15:46:57.065Z,98617.75
2023-03-05T15:49:00.306Z,98614.00
2023-03-05T15:51:07.471Z,98611.97
2023-03-05T15:53:12.248Z,98610.16
2023-03-05T15:55:15.356Z,98619.50
2023-03-05T15:57:24.033Z,98615.72
2023-03-05T15:59:27.587Z,98620.69
2023-03-05T16:01:30.486Z,98611.66
2023-03-05T16:03:33.510Z,98620.59
2023-03-05T16:05:38.215Z,98617.94
2023-03-05T16:07:46.454Z,98619.84
2023-03-05T16:09:51.847Z,98634.47
2023-03-05T16:11:54.860Z,98623.38
2023-03-05T16:13:58.125Z,98634.03
2023-03-05T16:16:03.308Z,98634.03
2023-03-05T16:18:11.370Z,98637.00
2023-03-05T16:20:16.424Z,98639.94
2023-03-05T16:22:19.745Z,98642.19
2023-03-05T16:24:24.253Z,98639.66
2023-03-05T16:26:27.616Z,98640.47
2023-03-05T16:28:30.598Z,98643.84
2023-03-05T16:30:33.831Z,98649.78
2023-03-05T16:32:37.965Z,98647.31
2023-03-05T16:34:40.974Z,98641.09
2023-03-05T16:36:49.263Z,98641.91
2023-03-05T16:38:54.327Z,98640.38
2023-03-05T16:41:07.839Z,98642.66
2023-03-05T16:43:11.325Z,98645.22
2023-03-05T16:45:14.363Z,98637.47
2023-03-05T16:47:17.285Z,98638.03
2023-03-05T16:49:20.827Z,98639.66
2023-03-05T16:51:24.348Z,98649.16
2023-03-05T16:53:27.224Z,98643.66
2023-03-05T16:55:30.373Z,98642.13
2023-03-05T16:57:35.185Z,98650.88
2023-03-05T16:59:38.592Z,98646.31
2023-03-05T17:01:41.622Z,98644.41
2023-03-05T17:03:45.307Z,98648.78
2023-03-05T17:05:48.188Z,98652.25
2023-03-05T17:07:51.032Z,98651.34
2023-03-05T17:09:54.699Z,98651.16
2023-03-05T17:11:57.602Z,98648.88
2023-03-05T17:14:04.269Z,98646.84
2023-03-05T17:16:08.433Z,98627.34
2023-03-05T17:18:11.381Z,98637.63
2023-03-05T17:20:14.508Z,98641.31
2023-03-05T17:22:17.714Z,98637.81
2023-03-05T17:24:22.275Z,98646.94
2023-03-05T17:26:25.750Z,98650.16
2023-03-05T17:28:28.561Z,98635.91
2023-03-05T17:30:33.753Z,98644.59
2023-03-05T17:32:36.750Z,98637.28
2023-03-05T17:34:40.248Z,98638.84
2023-03-05T17:36:43.340Z,98636.00
2023-03-05T17:38:47.927Z,98634.47
2023-03-05T17:40:50.922Z,98635.63
2023-03-05T17:42:53.790Z,98639.84
2023-03-05T17:44:57.541Z,98643.13
2023-03-05T17:47:02.006Z,98645.56
2023-03-05T17:49:04.840Z,98636.66
2023-03-05T17:51:08.120Z,98639.47
2023-03-05T17:53:11.101Z,98638.28
2023-03-05T17:55:17.544Z,98632.53
2023-03-05T17:57:20.561Z,98635.00
2023-03-05T17:59:24.295Z,98628.22
2023-03-05T18:01:29.821Z,98626.50
2023-03-05T18:03:33.953Z,98626.41
2023-03-05T18:05:37.261Z,98637.19
2023-03-05T18:07:40.647Z,98627.69
2023-03-05T18:09:43.682Z,98622.59
2023-03-05T18:11:46.649Z,98631.59
2023-03-05T18:13:49.672Z,98629.97
2023-03-05T18:15:52.854Z,98624.13
2023-03-05T18:17:55.976Z,98621.84
2023-03-05T18:20:02.848Z,98628.69
2023-03-05T18:22:06.886Z,98623.00
2023-03-05T18:24:10.014Z,98627.28
2023-03-05T18:26:13.012Z,98628.50
2023-03-05T18:28:17.020Z,98615.28
2023-03-05T18:30:20.040Z,98623.00
2023-03-05T18:32:24.527Z,98615.00
2023-03-05T18:34:27.969Z,98622.75
2023-03-05T18:36:33.261Z,98619.34
2023-03-05T18:38:36.628Z,98617.81
2023-03-05T18:40:40.499Z,98616.16
2023-03-05T18:42:43.359Z,98612.06
2023-03-05T18:44:46.308Z,98611.88
2023-03-05T18:46:49.215Z,98611.88
2023-03-05T18:48:52.448Z,98614.88
2023-03-05T18:50:55.526Z,98611.78
2023-03-05T18:53:00.157Z,98607.84
2023-03-05T18:55:03.017Z,98613.97
2023-03-05T18:57:05.958Z,98605.41
2023-03-05T18:59:08.898Z,98605.22
2023-03-05T19:01:11.931Z,98611.34
2023-03-05T19:03:15.241Z,98612.31
2023-03-05T19:05:18.712Z,98619.78
2023-03-05T19:07:21.657Z,98611.03
2023-03-05T19:09:53.881Z,98598.00
2023-03-05T19:11:56.916Z,98602.63
2023-03-05T19:13:59.910Z,98603.81
2023-03-05T19:16:08.236Z,98593.59
2023-03-05T19:18:11.240Z,98595.59
2023-03-05T19:20:16.230Z,98589.31
2023-03-05T19:22:19.433Z,98597.41
2023-03-05T19:24:23.974Z,98594.59
2023-03-05T19:26:28.210Z,98593.78
2023-03-05T19:28:31.294Z,98601.53
2023-03-05T19:30:34.422Z,98598.91
2023-03-05T19:32:37.879Z,98594.44
2023-03-05T19:34:41.362Z,98598.72
2023-03-05T19:36:44.513Z,98597.72
2023-03-05T19:38:48.657Z,98602.25
2023-03-05T19:40:52.598Z,98597.53
2023-03-05T19:42:58.078Z,98596.13
2023-03-05T19:45:02.016Z,98592.66
2023-03-05T19:47:05.079Z,98593.94
2023-03-05T19:49:08.322Z,98593.59
2023-03-05T19:51:17.055Z,98595.25
2023-03-05T19:53:20.077Z,98594.50
2023-03-05T19:55:22.902Z,98593.50
2023-03-05T19:57:25.896Z,98587.75
2023-03-05T19:59:30.355Z,98599.22
2023-03-05T20:01:33.556Z,98592.97
2023-03-05T20:03:38.665Z,98594.03
2023-03-05T20:05:42.356Z,98582.34
2023-03-05T20:07:45.275Z,98595.31
2023-03-05T20:09:50.522Z,98591.88
2023-03-05T20:11:53.539Z,98590.84
2023-03-05T20:13:56.633Z,98587.88
2023-03-05T20:16:01.266Z,98588.63
2023-03-05T20:18:04.592Z,98586.53
2023-03-05T20:20:08.721Z,98586.47
2023-03-05T20:22:11.628Z,98579.16
2023-03-05T20:24:16.943Z,98577.88
2023-03-05T20:26:20.178Z,98577.53
2023-03-05T20:28:26.443Z,98578.25
2023-03-05T20:30:30.009Z,98574.00
2023-03-05T20:32:34.460Z,98569.84
2023-03-05T20:34:37.358Z,98566.84
2023-03-05T20:36:40.657Z,98564.03
2023-03-05T20:38:45.999Z,98559.81
2023-03-05T20:40:50.199Z,98559.75
2023-03-05T20:42:53.227Z,98567.97
2023-03-05T20:44:56.161Z,98562.50
2023-03-05T20:47:46.377Z,98570.72
2023-03-05T20:49:55.161Z,98567.97
2023-03-05T20:51:58.015Z,98563.28
2023-03-05T20:54:04.378Z,98569.75
2023-03-05T20:56:07.842Z,98586.19
2023-03-05T20:58:11.193Z,98578.25
2023-03-05T21:00:15.203Z,98584.53
2023-03-05T21:02:18.731Z,98581.41
2023-03-05T21:04:21.800Z,98584.75
2023-03-05T21:06:27.464Z,98575.50
2023-03-05T21:08:30.645Z,98584.94
2023-03-05T21:10:33.693Z,98575.75
2023-03-05T21:12:36.537Z,98573.88
2023-03-05T21:14:41.130Z,98568.72
2023-03-05T21:16:44.022Z,98570.84
2023-03-05T21:18:46.924Z,98571.94
2023-03-05T21:20:50.484Z,98566.59
2023-03-05T21:22:55.471Z,98562.81
2023-03-05T21:25:23.283Z,98555.81
2023-03-05T21:27:26.246Z,98564.00
2023-03-05T21:29:29.103Z,98557.00
2023-03-05T21:31:32.570Z,98561.63
2023-03-05T21:33:35.738Z,98563.28
2023-03-05T21:35:39.860Z,98560.47
2023-03-05T21:37:43.213Z,98561.28
2023-03-05T21:39:47.682Z,98562.22
2023-03-05T21:41:50.834Z,98559.91
2023-03-05T21:43:54.032Z,98555.19
2023-03-05T21:45:58.049Z,98543.97
2023-03-05T21:48:01.395Z,98549.31
2023-03-05T21:50:04.612Z,98548.63
2023-03-05T21:52:12.244Z,98545.44
2023-03-05T21:54:15.155Z,98545.25
2023-03-05T21:56:25.613Z,98552.34
2023-03-05T21:58:28.533Z,98557.00
2023-03-05T22:00:31.490Z,98551.25
2023-03-05T22:02:34.396Z,98559.63
2023-03-05T22:04:37.436Z,98544.06
2023-03-05T22:06:40.316Z,98539.97
2023-03-05T22:08:43.266Z,98529.09
2023-03-05T22:10:46.411Z,98528.91
2023-03-05T22:13:11.841Z,98538.34
2023-03-05T22:15:14.798Z,98533.06
2023-03-05T22:17:17.753Z,98532.19
2023-03-05T22:19:20.950Z,98515.97
2023-03-05T22:21:27.232Z,98526.31
2023-03-05T22:23:31.811Z,98524.31
2023-03-05T22:25:34.862Z,98519.50
2023-03-05T22:27:37.702Z,98524.78
2023-03-05T22:29:42.143Z,98524.13
2023-03-05T22:31:45.563Z,98522.31
2023-03-05T22:33:48.612Z,98521.03
2023-03-05T22:35:51.898Z,98521.50
2023-03-05T22:37:54.834Z,98522.31
2023-03-05T22:39:58.213Z,98521.69
2023-03-05T22:42:01.441Z,98526.63
2023-03-05T22:44:04.471Z,98526.03
2023-03-05T22:46:13.566Z,98531.13
2023-03-05T22:48:16.855Z,98524.31
2023-03-05T22:50:20.366Z,98530.91
2023-03-05T22:52:23.310Z,98531.91
2023-03-05T22:54:26.325Z,98528.25
2023-03-05T22:56:29.192Z,98526.88
2023-03-05T22:58:32.210Z,98533.25
2023-03-05T23:00:35.175Z,98527.31
2023-03-05T23:02:39.693Z,98533.25
2023-03-05T23:04:52.980Z,98535.72
2023-03-05T23:06:56.058Z,98531.59
2023-03-05T23:08:58.949Z,98531.97
2023-03-05T23:11:07.769Z,98524.22
2023-03-05T23:13:10.628Z,98527.50
2023-03-05T23:15:15.841Z,98528.31
2023-03-05T23:17:18.751Z,98525.84
2023-03-05T23:19:23.170Z,98521.41
2023-03-05T23:21:26.394Z,98519.41
2023-03-05T23:23:29.254Z,98517.47
2023-03-05T23:25:34.112Z,98511.81
2023-03-05T23:27:37.004Z,98515.94
2023-03-05T23:30:23.077Z,98520.94
2023-03-05T23:32:29.155Z,98511.03
2023-03-05T23:34:33.525Z,98513.03
2023-03-05T23:36:36.392Z,98511.19
2023-03-05T23:38:39.354Z,98505.25
2023-03-05T23:40:43.687Z,98517.47
2023-03-05T23:42:46.701Z,98510.53
2023-03-05T23:44:49.703Z,98506.38
2023-03-05T23:46:52.531Z,98509.56
2023-03-05T23:48:55.425Z,98509.09
2023-03-05T23:50:59.917Z,98508.91
2023-03-05T23:53:03.290Z,98505.25
2023-03-05T23:55:07.279Z,98503.16
2023-03-05T23:57:10.230Z,98511.53
2023-03-05T23:59:13.040Z,98505.25
